sensor_id;sensor_type;location;lat;lon;timestamp;pressure;altitude;pressure_sealevel;temperature;humidity
26443;BME280;5563;52.296;6.806;2023-08-07T00:00:43;100909.06;;;13.59;100.00
26443;BME280;5563;52.296;6.806;2023-08-07T00:03:10;100914.19;;;13.62;100.00
26443;BME280;5563;52.296;6.806;2023-08-07T00:05:45;100916.28;;;13.68;100.00
26443;BME280;5563;52.296;6.806;2023-08-07T00:08:12;100920.09;;;13.65;100.00
26443;BME280;5563;52.296;6.806;2023-08-07T00:10:46;100914.75;;;13.65;100.00
26443;BME280;5563;52.296;6.806;2023-08-07T00:13:14;100922.06;;;13.63;100.00
26443;BME280;5563;52.296;6.806;2023-08-07T00:15:41;100923.88;;;13.63;100.00
26443;BME280;5563;52.296;6.806;2023-08-07T00:18:14;100921.50;;;13.60;100.00
26443;BME280;5563;52.296;6.806;2023-08-07T00:20:47;100922.38;;;13.60;100.00
26443;BME280;5563;52.296;6.806;2023-08-07T00:23:14;100918.97;;;13.58;100.00
26443;BME280;5563;52.296;6.806;2023-08-07T00:25:47;100925.88;;;13.61;100.00
26443;BME280;5563;52.296;6.806;2023-08-07T00:28:14;100924.19;;;13.60;100.00
26443;BME280;5563;52.296;6.806;2023-08-07T00:30:54;100925.16;;;13.59;100.00
26443;BME280;5563;52.296;6.806;2023-08-07T00:33:27;100918.13;;;13.58;100.00
26443;BME280;5563;52.296;6.806;2023-08-07T00:35:54;100928.53;;;13.61;100.00
26443;BME280;5563;52.296;6.806;2023-08-07T00:38:27;100930.50;;;13.59;100.00
26443;BME280;5563;52.296;6.806;2023-08-07T00:40:54;100923.34;;;13.59;100.00
26443;BME280;5563;52.296;6.806;2023-08-07T00:43:27;100928.69;;;13.59;100.00
26443;BME280;5563;52.296;6.806;2023-08-07T00:46:00;100929.53;;;13.60;100.00
26443;BME280;5563;52.296;6.806;2023-08-07T00:48:34;100931.38;;;13.59;100.00
26443;BME280;5563;52.296;6.806;2023-08-07T00:51:02;100927.16;;;13.57;100.00
26443;BME280;5563;52.296;6.806;2023-08-07T00:53:38;100929.53;;;13.60;100.00
26443;BME280;5563;52.296;6.806;2023-08-07T00:56:05;100936.56;;;13.61;100.00
26443;BME280;5563;52.296;6.806;2023-08-07T00:58:39;100930.66;;;13.57;100.00
26443;BME280;5563;52.296;6.806;2023-08-07T01:01:07;100938.44;;;13.60;100.00
26443;BME280;5563;52.296;6.806;2023-08-07T01:03:40;100940.56;;;13.57;100.00
26443;BME280;5563;52.296;6.806;2023-08-07T01:06:13;100928.69;;;13.59;100.00
26443;BME280;5563;52.296;6.806;2023-08-07T01:08:46;100932.22;;;13.60;100.00
26443;BME280;5563;52.296;6.806;2023-08-07T01:11:24;100937.59;;;13.60;100.00
26443;BME280;5563;52.296;6.806;2023-08-07T01:14:10;100938.44;;;13.60;100.00
26443;BME280;5563;52.296;6.806;2023-08-07T01:17:07;100935.19;;;13.57;100.00
26443;BME280;5563;52.296;6.806;2023-08-07T01:19:36;100938.44;;;13.60;100.00
26443;BME280;5563;52.296;6.806;2023-08-07T01:22:12;100942.94;;;13.60;100.00
26443;BME280;5563;52.296;6.806;2023-08-07T01:24:48;100944.75;;;13.59;100.00
26443;BME280;5563;52.296;6.806;2023-08-07T01:27:21;100939.41;;;13.59;100.00
26443;BME280;5563;52.296;6.806;2023-08-07T01:30:22;100935.88;;;13.59;100.00
26443;BME280;5563;52.296;6.806;2023-08-07T01:33:19;100942.22;;;13.58;100.00
26443;BME280;5563;52.296;6.806;2023-08-07T01:35:53;100943.22;;;13.57;100.00
26443;BME280;5563;52.296;6.806;2023-08-07T01:38:28;100940.66;;;13.55;100.00
26443;BME280;5563;52.296;6.806;2023-08-07T01:41:02;100941.50;;;13.56;100.00
26443;BME280;5563;52.296;6.806;2023-08-07T01:43:30;100927.56;;;13.52;100.00
26443;BME280;5563;52.296;6.806;2023-08-07T01:46:05;100937.41;;;13.52;100.00
26443;BME280;5563;52.296;6.806;2023-08-07T01:48:39;100943.50;;;13.54;100.00
26443;BME280;5563;52.296;6.806;2023-08-07T01:51:12;100936.31;;;13.54;100.00
26443;BME280;5563;52.296;6.806;2023-08-07T01:53:46;100930.09;;;13.54;100.00
26443;BME280;5563;52.296;6.806;2023-08-07T01:56:21;100925.03;;;13.51;100.00
26443;BME280;5563;52.296;6.806;2023-08-07T01:58:48;100935.31;;;13.55;100.00
26443;BME280;5563;52.296;6.806;2023-08-07T02:01:15;100939.13;;;13.53;100.00
26443;BME280;5563;52.296;6.806;2023-08-07T02:03:48;100938.28;;;13.52;100.00
26443;BME280;5563;52.296;6.806;2023-08-07T02:06:15;100949.00;;;13.52;100.00
26443;BME280;5563;52.296;6.806;2023-08-07T02:08:48;100943.63;;;13.52;100.00
26443;BME280;5563;52.296;6.806;2023-08-07T02:11:15;100946.03;;;13.55;100.00
26443;BME280;5563;52.296;6.806;2023-08-07T02:13:49;100957.59;;;13.56;100.00
26443;BME280;5563;52.296;6.806;2023-08-07T02:16:16;100947.72;;;13.56;100.00
26443;BME280;5563;52.296;6.806;2023-08-07T02:18:49;100956.72;;;13.55;100.00
26443;BME280;5563;52.296;6.806;2023-08-07T02:21:22;100945.34;;;13.53;100.00
26443;BME280;5563;52.296;6.806;2023-08-07T02:23:55;100949.69;;;13.54;100.00
26443;BME280;5563;52.296;6.806;2023-08-07T02:26:29;100958.44;;;13.56;100.00
26443;BME280;5563;52.296;6.806;2023-08-07T02:28:56;100950.25;;;13.58;100.00
26443;BME280;5563;52.296;6.806;2023-08-07T02:31:37;100941.66;;;13.54;100.00
26443;BME280;5563;52.296;6.806;2023-08-07T02:34:10;100960.13;;;13.57;100.00
26443;BME280;5563;52.296;6.806;2023-08-07T02:36:37;100962.66;;;13.59;100.00
26443;BME280;5563;52.296;6.806;2023-08-07T02:39:04;100951.25;;;13.57;100.00
26443;BME280;5563;52.296;6.806;2023-08-07T02:41:37;100950.41;;;13.56;100.00
26443;BME280;5563;52.296;6.806;2023-08-07T02:44:04;100963.81;;;13.56;100.00
26443;BME280;5563;52.296;6.806;2023-08-07T02:46:37;100958.59;;;13.55;100.00
26443;BME280;5563;52.296;6.806;2023-08-07T02:49:04;100966.78;;;13.53;100.00
26443;BME280;5563;52.296;6.806;2023-08-07T02:51:38;100969.72;;;13.50;100.00
26443;BME280;5563;52.296;6.806;2023-08-07T02:54:05;100968.75;;;13.51;100.00
26443;BME280;5563;52.296;6.806;2023-08-07T02:56:38;100961.97;;;13.47;100.00
26443;BME280;5563;52.296;6.806;2023-08-07T02:59:05;100952.81;;;13.50;100.00
26443;BME280;5563;52.296;6.806;2023-08-07T03:01:39;100949.28;;;13.49;100.00
26443;BME280;5563;52.296;6.806;2023-08-07T03:04:06;100948.56;;;13.47;100.00
26443;BME280;5563;52.296;6.806;2023-08-07T03:06:39;100957.47;;;13.48;100.00
26443;BME280;5563;52.296;6.806;2023-08-07T03:09:06;100963.53;;;13.50;100.00
26443;BME280;5563;52.296;6.806;2023-08-07T03:11:39;100954.78;;;13.48;100.00
26443;BME280;5563;52.296;6.806;2023-08-07T03:14:12;100945.75;;;13.49;100.00
26443;BME280;5563;52.296;6.806;2023-08-07T03:16:39;100952.25;;;13.46;100.00
26443;BME280;5563;52.296;6.806;2023-08-07T03:19:12;100951.09;;;13.49;100.00
26443;BME280;5563;52.296;6.806;2023-08-07T03:21:39;100950.97;;;13.50;100.00
26443;BME280;5563;52.296;6.806;2023-08-07T03:24:12;100949.69;;;13.45;100.00
26443;BME280;5563;52.296;6.806;2023-08-07T03:26:39;100952.09;;;13.48;100.00
26443;BME280;5563;52.296;6.806;2023-08-07T03:29:19;100958.44;;;13.47;100.00
26443;BME280;5563;52.296;6.806;2023-08-07T03:32:00;100953.06;;;13.47;100.00
26443;BME280;5563;52.296;6.806;2023-08-07T03:34:33;100950.81;;;13.42;100.00
26443;BME280;5563;52.296;6.806;2023-08-07T03:37:00;100948.53;;;13.38;100.00
26443;BME280;5563;52.296;6.806;2023-08-07T03:39:33;100955.31;;;13.32;100.00
26443;BME280;5563;52.296;6.806;2023-08-07T03:42:06;100953.91;;;13.28;100.00
26443;BME280;5563;52.296;6.806;2023-08-07T03:44:33;100946.97;;;13.26;100.00
26443;BME280;5563;52.296;6.806;2023-08-07T03:47:07;100953.47;;;13.23;100.00
26443;BME280;5563;52.296;6.806;2023-08-07T03:49:34;100951.34;;;13.17;100.00
26443;BME280;5563;52.296;6.806;2023-08-07T03:52:07;100955.03;;;13.16;100.00
26443;BME280;5563;52.296;6.806;2023-08-07T03:54:34;100955.28;;;13.13;100.00
26443;BME280;5563;52.296;6.806;2023-08-07T03:57:07;100952.59;;;13.13;100.00
26443;BME280;5563;52.296;6.806;2023-08-07T03:59:35;100960.63;;;13.13;100.00
26443;BME280;5563;52.296;6.806;2023-08-07T04:02:08;100961.75;;;13.11;100.00
26443;BME280;5563;52.296;6.806;2023-08-07T04:04:35;100958.09;;;13.12;100.00
26443;BME280;5563;52.296;6.806;2023-08-07T04:07:08;100964.31;;;13.12;100.00
26443;BME280;5563;52.296;6.806;2023-08-07T04:09:35;100952.03;;;13.10;100.00
26443;BME280;5563;52.296;6.806;2023-08-07T04:12:08;100947.66;;;13.09;100.00
26443;BME280;5563;52.296;6.806;2023-08-07T04:14:42;100942.44;;;13.07;100.00
26443;BME280;5563;52.296;6.806;2023-08-07T04:17:15;100947.91;;;13.06;100.00
26443;BME280;5563;52.296;6.806;2023-08-07T04:19:49;100950.59;;;13.06;100.00
26443;BME280;5563;52.296;6.806;2023-08-07T04:22:22;100956.81;;;13.06;100.00
26443;BME280;5563;52.296;6.806;2023-08-07T04:24:55;100949.91;;;13.04;100.00
26443;BME280;5563;52.296;6.806;2023-08-07T04:27:22;100961.19;;;13.07;100.00
26443;BME280;5563;52.296;6.806;2023-08-07T04:30:02;100957.50;;;13.08;100.00
26443;BME280;5563;52.296;6.806;2023-08-07T04:32:28;100968.22;;;13.08;100.00
26443;BME280;5563;52.296;6.806;2023-08-07T04:35:02;100958.38;;;13.09;100.00
26443;BME280;5563;52.296;6.806;2023-08-07T04:37:29;100966.25;;;13.10;100.00
26443;BME280;5563;52.296;6.806;2023-08-07T04:40:03;100965.97;;;13.13;100.00
26443;BME280;5563;52.296;6.806;2023-08-07T04:42:31;100965.97;;;13.13;100.00
26443;BME280;5563;52.296;6.806;2023-08-07T04:45:05;100962.34;;;13.14;100.00
26443;BME280;5563;52.296;6.806;2023-08-07T04:47:39;100966.53;;;13.17;100.00
26443;BME280;5563;52.296;6.806;2023-08-07T04:50:07;100954.72;;;13.19;100.00
26443;BME280;5563;52.296;6.806;2023-08-07T04:52:41;100965.16;;;13.22;100.00
26443;BME280;5563;52.296;6.806;2023-08-07T04:55:14;100955.16;;;13.24;100.00
26443;BME280;5563;52.296;6.806;2023-08-07T04:57:48;100957.56;;;13.27;100.00
26443;BME280;5563;52.296;6.806;2023-08-07T05:00:17;100963.63;;;13.29;100.00
26443;BME280;5563;52.296;6.806;2023-08-07T05:02:51;100970.53;;;13.32;100.00
26443;BME280;5563;52.296;6.806;2023-08-07T05:05:18;100974.75;;;13.34;100.00
26443;BME280;5563;52.296;6.806;2023-08-07T05:07:54;100981.69;;;13.37;100.00
26443;BME280;5563;52.296;6.806;2023-08-07T05:10:22;100988.56;;;13.39;100.00
26443;BME280;5563;52.296;6.806;2023-08-07T05:12:55;100990.00;;;13.43;100.00
26443;BME280;5563;52.296;6.806;2023-08-07T05:15:23;100981.97;;;13.43;100.00
26443;BME280;5563;52.296;6.806;2023-08-07T05:17:57;100988.75;;;13.47;100.00
26443;BME280;5563;52.296;6.806;2023-08-07T05:20:24;100990.16;;;13.51;100.00
26443;BME280;5563;52.296;6.806;2023-08-07T05:22:58;100990.75;;;13.55;100.00
26443;BME280;5563;52.296;6.806;2023-08-07T05:25:25;100995.81;;;13.58;100.00
26443;BME280;5563;52.296;6.806;2023-08-07T05:27:59;101002.72;;;13.60;100.00
26443;BME280;5563;52.296;6.806;2023-08-07T05:30:39;101005.97;;;13.64;100.00
26443;BME280;5563;52.296;6.806;2023-08-07T05:33:12;100999.75;;;13.63;100.00
26443;BME280;5563;52.296;6.806;2023-08-07T05:35:41;100997.78;;;13.65;100.00
26443;BME280;5563;52.296;6.806;2023-08-07T05:38:14;101011.47;;;13.72;100.00
26443;BME280;5563;52.296;6.806;2023-08-07T05:40:41;101013.59;;;13.78;100.00
26443;BME280;5563;52.296;6.806;2023-08-07T05:43:08;101015.00;;;13.82;100.00
26443;BME280;5563;52.296;6.806;2023-08-07T05:45:42;101019.81;;;13.88;100.00
26443;BME280;5563;52.296;6.806;2023-08-07T05:48:11;101030.25;;;13.91;100.00
26443;BME280;5563;52.296;6.806;2023-08-07T05:50:45;101032.78;;;13.92;100.00
26443;BME280;5563;52.296;6.806;2023-08-07T05:53:12;101033.34;;;13.96;100.00
26443;BME280;5563;52.296;6.806;2023-08-07T05:55:45;101037.59;;;13.98;100.00
26443;BME280;5563;52.296;6.806;2023-08-07T05:58:12;101029.00;;;14.04;100.00
26443;BME280;5563;52.296;6.806;2023-08-07T06:00:45;101023.47;;;14.06;100.00
26443;BME280;5563;52.296;6.806;2023-08-07T06:03:12;101031.94;;;14.11;100.00
26443;BME280;5563;52.296;6.806;2023-08-07T06:05:46;101029.69;;;14.16;100.00
26443;BME280;5563;52.296;6.806;2023-08-07T06:08:13;101029.53;;;14.18;100.00
26443;BME280;5563;52.296;6.806;2023-08-07T06:10:40;101045.66;;;14.27;100.00
26443;BME280;5563;52.296;6.806;2023-08-07T06:13:13;101052.28;;;14.33;100.00
26443;BME280;5563;52.296;6.806;2023-08-07T06:15:59;101045.22;;;14.32;100.00
26443;BME280;5563;52.296;6.806;2023-08-07T06:18:33;101050.72;;;14.30;100.00
26443;BME280;5563;52.296;6.806;2023-08-07T06:21:00;101059.34;;;14.34;100.00
26443;BME280;5563;52.296;6.806;2023-08-07T06:23:34;101058.22;;;14.36;100.00
26443;BME280;5563;52.296;6.806;2023-08-07T06:26:01;101064.16;;;14.40;100.00
26443;BME280;5563;52.296;6.806;2023-08-07T06:28:37;101060.44;;;14.41;100.00
26443;BME280;5563;52.296;6.806;2023-08-07T06:31:18;101055.38;;;14.38;100.00
26443;BME280;5563;52.296;6.806;2023-08-07T06:33:51;101077.25;;;14.43;100.00
26443;BME280;5563;52.296;6.806;2023-08-07T06:36:18;101076.00;;;14.37;100.00
26443;BME280;5563;52.296;6.806;2023-08-07T06:38:51;101080.09;;;14.41;100.00
26443;BME280;5563;52.296;6.806;2023-08-07T06:41:18;101090.53;;;14.44;100.00
26443;BME280;5563;52.296;6.806;2023-08-07T06:43:51;101098.31;;;14.47;100.00
26443;BME280;5563;52.296;6.806;2023-08-07T06:46:24;101090.38;;;14.46;100.00
26443;BME280;5563;52.296;6.806;2023-08-07T06:48:53;101096.31;;;14.49;100.00
26443;BME280;5563;52.296;6.806;2023-08-07T06:51:26;101101.81;;;14.57;100.00
26443;BME280;5563;52.296;6.806;2023-08-07T06:53:53;101104.34;;;14.68;100.00
26443;BME280;5563;52.296;6.806;2023-08-07T06:56:26;101108.16;;;14.75;100.00
26443;BME280;5563;52.296;6.806;2023-08-07T06:58:53;101101.06;;;14.74;100.00
26443;BME280;5563;52.296;6.806;2023-08-07T07:01:26;101113.22;;;14.78;100.00
26443;BME280;5563;52.296;6.806;2023-08-07T07:03:53;101120.41;;;14.87;100.00
26443;BME280;5563;52.296;6.806;2023-08-07T07:06:26;101115.75;;;14.89;100.00
26443;BME280;5563;52.296;6.806;2023-08-07T07:08:53;101112.91;;;14.91;100.00
26443;BME280;5563;52.296;6.806;2023-08-07T07:11:29;101116.56;;;14.99;100.00
26443;BME280;5563;52.296;6.806;2023-08-07T07:13:56;101116.09;;;15.13;100.00
26443;BME280;5563;52.296;6.806;2023-08-07T07:16:29;101118.22;;;15.20;100.00
26443;BME280;5563;52.296;6.806;2023-08-07T07:18:56;101121.19;;;15.17;100.00
26443;BME280;5563;52.296;6.806;2023-08-07T07:21:32;101142.56;;;14.99;100.00
26443;BME280;5563;52.296;6.806;2023-08-07T07:23:58;101136.69;;;14.86;100.00
26443;BME280;5563;52.296;6.806;2023-08-07T07:26:32;101140.63;;;14.72;100.00
26443;BME280;5563;52.296;6.806;2023-08-07T07:29:05;101146.59;;;14.66;100.00
26443;BME280;5563;52.296;6.806;2023-08-07T07:31:38;101141.94;;;14.68;100.00
26443;BME280;5563;52.296;6.806;2023-08-07T07:34:11;101147.56;;;14.75;100.00
26443;BME280;5563;52.296;6.806;2023-08-07T07:36:45;101147.97;;;14.80;100.00
26443;BME280;5563;52.296;6.806;2023-08-07T07:39:18;101154.88;;;14.92;100.00
26443;BME280;5563;52.296;6.806;2023-08-07T07:41:45;101159.22;;;15.02;100.00
26443;BME280;5563;52.296;6.806;2023-08-07T07:44:18;101169.41;;;15.08;100.00
26443;BME280;5563;52.296;6.806;2023-08-07T07:46:45;101167.28;;;15.12;100.00
26443;BME280;5563;52.296;6.806;2023-08-07T07:49:18;101170.81;;;15.12;100.00
26443;BME280;5563;52.296;6.806;2023-08-07T07:51:51;101175.47;;;15.10;100.00
26443;BME280;5563;52.296;6.806;2023-08-07T07:54:20;101178.44;;;15.17;100.00
26443;BME280;5563;52.296;6.806;2023-08-07T07:56:54;101167.13;;;15.23;100.00
26443;BME280;5563;52.296;6.806;2023-08-07T07:59:27;101174.16;;;15.34;100.00
26443;BME280;5563;52.296;6.806;2023-08-07T08:01:54;101186.13;;;15.49;100.00
26443;BME280;5563;52.296;6.806;2023-08-07T08:04:27;101173.53;;;15.59;100.00
26443;BME280;5563;52.296;6.806;2023-08-07T08:07:00;101182.69;;;15.66;100.00
26443;BME280;5563;52.296;6.806;2023-08-07T08:09:27;101182.31;;;15.61;100.00
26443;BME280;5563;52.296;6.806;2023-08-07T08:12:01;101193.16;;;15.59;100.00
26443;BME280;5563;52.296;6.806;2023-08-07T08:14:29;101186.56;;;15.54;100.00
26443;BME280;5563;52.296;6.806;2023-08-07T08:17:19;101196.78;;;15.41;100.00
26443;BME280;5563;52.296;6.806;2023-08-07T08:19:46;101198.34;;;15.43;100.00
26443;BME280;5563;52.296;6.806;2023-08-07T08:22:20;101199.47;;;15.41;99.70
26443;BME280;5563;52.296;6.806;2023-08-07T08:24:47;101210.06;;;15.52;99.99
26443;BME280;5563;52.296;6.806;2023-08-07T08:27:14;101217.78;;;15.64;100.00
26443;BME280;5563;52.296;6.806;2023-08-07T08:29:55;101207.44;;;15.69;96.75
26443;BME280;5563;52.296;6.806;2023-08-07T08:32:28;101219.63;;;15.64;96.55
26443;BME280;5563;52.296;6.806;2023-08-07T08:35:01;101249.66;;;15.40;97.14
26443;BME280;5563;52.296;6.806;2023-08-07T08:37:35;101248.44;;;14.96;96.49
26443;BME280;5563;52.296;6.806;2023-08-07T08:40:08;101253.78;;;14.68;99.44
26443;BME280;5563;52.296;6.806;2023-08-07T08:42:46;101242.47;;;14.45;99.40
26443;BME280;5563;52.296;6.806;2023-08-07T08:45:20;101246.38;;;14.32;100.00
26443;BME280;5563;52.296;6.806;2023-08-07T08:47:49;101250.22;;;14.39;100.00
26443;BME280;5563;52.296;6.806;2023-08-07T08:50:26;101256.03;;;14.53;100.00
26443;BME280;5563;52.296;6.806;2023-08-07T08:52:53;101259.59;;;14.63;100.00
26443;BME280;5563;52.296;6.806;2023-08-07T08:55:28;101261.56;;;14.71;100.00
26443;BME280;5563;52.296;6.806;2023-08-07T08:58:03;101255.91;;;14.83;100.00
26443;BME280;5563;52.296;6.806;2023-08-07T09:00:31;101264.09;;;15.01;100.00
26443;BME280;5563;52.296;6.806;2023-08-07T09:03:06;101253.50;;;15.18;99.96
26443;BME280;5563;52.296;6.806;2023-08-07T09:05:39;101258.72;;;15.30;96.83
26443;BME280;5563;52.296;6.806;2023-08-07T09:08:08;101252.09;;;15.43;97.43
26443;BME280;5563;52.296;6.806;2023-08-07T09:10:42;101254.16;;;15.59;95.71
26443;BME280;5563;52.296;6.806;2023-08-07T09:13:19;101250.28;;;15.80;94.88
26443;BME280;5563;52.296;6.806;2023-08-07T09:15:55;101257.75;;;16.13;95.56
26443;BME280;5563;52.296;6.806;2023-08-07T09:18:25;101254.19;;;16.23;91.22
26443;BME280;5563;52.296;6.806;2023-08-07T09:20:59;101264.00;;;16.14;91.05
26443;BME280;5563;52.296;6.806;2023-08-07T09:23:33;101279.63;;;16.01;91.25
26443;BME280;5563;52.296;6.806;2023-08-07T09:26:06;101289.34;;;15.75;92.87
26443;BME280;5563;52.296;6.806;2023-08-07T09:28:53;101289.97;;;15.31;94.92
26443;BME280;5563;52.296;6.806;2023-08-07T09:31:27;101291.25;;;14.88;96.10
26443;BME280;5563;52.296;6.806;2023-08-07T09:34:04;101279.63;;;14.59;98.76
26443;BME280;5563;52.296;6.806;2023-08-07T09:36:32;101286.97;;;14.57;100.00
26443;BME280;5563;52.296;6.806;2023-08-07T09:39:06;101285.44;;;14.83;100.00
26443;BME280;5563;52.296;6.806;2023-08-07T09:41:39;101282.78;;;15.22;100.00
26443;BME280;5563;52.296;6.806;2023-08-07T09:44:12;101280.19;;;15.68;100.00
26443;BME280;5563;52.296;6.806;2023-08-07T09:46:43;101271.56;;;16.01;99.86
26443;BME280;5563;52.296;6.806;2023-08-07T09:49:18;101276.72;;;16.39;99.37
26443;BME280;5563;52.296;6.806;2023-08-07T09:51:47;101284.81;;;16.84;99.08
26443;BME280;5563;52.296;6.806;2023-08-07T09:54:23;101281.88;;;17.30;97.83
26443;BME280;5563;52.296;6.806;2023-08-07T09:56:55;101282.94;;;17.55;87.21
26443;BME280;5563;52.296;6.806;2023-08-07T09:59:29;101275.84;;;17.54;85.33
26443;BME280;5563;52.296;6.806;2023-08-07T10:01:56;101283.56;;;17.49;82.17
26443;BME280;5563;52.296;6.806;2023-08-07T10:04:30;101277.53;;;17.11;80.31
26443;BME280;5563;52.296;6.806;2023-08-07T10:06:57;101289.22;;;17.20;84.11
26443;BME280;5563;52.296;6.806;2023-08-07T10:09:31;101292.06;;;17.18;85.08
26443;BME280;5563;52.296;6.806;2023-08-07T10:12:06;101314.16;;;17.04;83.67
26443;BME280;5563;52.296;6.806;2023-08-07T10:14:40;101311.84;;;16.74;81.08
26443;BME280;5563;52.296;6.806;2023-08-07T10:17:09;101313.97;;;16.44;81.93
26443;BME280;5563;52.296;6.806;2023-08-07T10:19:43;101323.59;;;16.19;82.21
26443;BME280;5563;52.296;6.806;2023-08-07T10:22:25;101317.34;;;16.18;83.57
26443;BME280;5563;52.296;6.806;2023-08-07T10:24:54;101323.25;;;16.32;79.22
26443;BME280;5563;52.296;6.806;2023-08-07T10:27:36;101314.34;;;16.58;80.32
26443;BME280;5563;52.296;6.806;2023-08-07T10:30:06;101325.22;;;16.84;79.12
26443;BME280;5563;52.296;6.806;2023-08-07T10:32:54;101312.81;;;17.26;79.42
26443;BME280;5563;52.296;6.806;2023-08-07T10:35:46;101310.59;;;17.57;77.80
26443;BME280;5563;52.296;6.806;2023-08-07T10:38:23;101315.03;;;17.66;72.88
26443;BME280;5563;52.296;6.806;2023-08-07T10:41:12;101315.03;;;17.66;75.18
26443;BME280;5563;52.296;6.806;2023-08-07T10:43:46;101311.97;;;17.43;72.40
26443;BME280;5563;52.296;6.806;2023-08-07T10:46:15;101327.63;;;17.22;70.50
26443;BME280;5563;52.296;6.806;2023-08-07T10:48:54;101336.78;;;16.94;70.46
26443;BME280;5563;52.296;6.806;2023-08-07T10:51:30;101339.41;;;16.59;71.06
26443;BME280;5563;52.296;6.806;2023-08-07T10:54:04;101344.00;;;16.39;72.58
26443;BME280;5563;52.296;6.806;2023-08-07T10:56:35;101350.84;;;16.34;73.09
26443;BME280;5563;52.296;6.806;2023-08-07T10:59:13;101355.47;;;16.41;72.86
26443;BME280;5563;52.296;6.806;2023-08-07T11:01:42;101357.72;;;16.46;73.28
26443;BME280;5563;52.296;6.806;2023-08-07T11:04:15;101371.06;;;16.47;75.23
26443;BME280;5563;52.296;6.806;2023-08-07T11:06:48;101374.94;;;16.35;75.07
26443;BME280;5563;52.296;6.806;2023-08-07T11:09:22;101375.13;;;16.14;76.08
26443;BME280;5563;52.296;6.806;2023-08-07T11:11:49;101365.78;;;16.18;74.28
26443;BME280;5563;52.296;6.806;2023-08-07T11:14:22;101371.56;;;16.23;73.66
26443;BME280;5563;52.296;6.806;2023-08-07T11:16:49;101378.44;;;16.36;74.96
26443;BME280;5563;52.296;6.806;2023-08-07T11:19:23;101382.28;;;16.70;73.67
26443;BME280;5563;52.296;6.806;2023-08-07T11:21:49;101379.88;;;16.94;70.90
26443;BME280;5563;52.296;6.806;2023-08-07T11:24:23;101371.72;;;17.21;69.96
26443;BME280;5563;52.296;6.806;2023-08-07T11:27:00;101382.28;;;17.32;69.29
26443;BME280;5563;52.296;6.806;2023-08-07T11:29:34;101370.09;;;17.46;71.01
26443;BME280;5563;52.296;6.806;2023-08-07T11:32:08;101359.22;;;17.47;65.49
26443;BME280;5563;52.296;6.806;2023-08-07T11:34:48;101376.34;;;17.46;65.59
26443;BME280;5563;52.296;6.806;2023-08-07T11:37:21;101370.06;;;17.55;64.57
26443;BME280;5563;52.296;6.806;2023-08-07T11:39:48;101390.78;;;17.55;63.90
26443;BME280;5563;52.296;6.806;2023-08-07T11:42:22;101372.06;;;17.53;63.68
26443;BME280;5563;52.296;6.806;2023-08-07T11:44:49;101379.59;;;17.67;64.47
26443;BME280;5563;52.296;6.806;2023-08-07T11:47:23;101370.19;;;17.71;63.99
26443;BME280;5563;52.296;6.806;2023-08-07T11:49:51;101385.53;;;17.71;65.94
26443;BME280;5563;52.296;6.806;2023-08-07T11:52:25;101373.09;;;17.78;65.47
26443;BME280;5563;52.296;6.806;2023-08-07T11:54:52;101379.09;;;17.89;65.82
26443;BME280;5563;52.296;6.806;2023-08-07T11:57:26;101383.59;;;18.06;66.50
26443;BME280;5563;52.296;6.806;2023-08-07T11:59:53;101385.75;;;18.03;65.63
26443;BME280;5563;52.296;6.806;2023-08-07T12:02:26;101383.56;;;17.98;67.62
26443;BME280;5563;52.296;6.806;2023-08-07T12:04:58;101380.59;;;17.84;65.35
26443;BME280;5563;52.296;6.806;2023-08-07T12:07:31;101384.78;;;17.61;66.83
26443;BME280;5563;52.296;6.806;2023-08-07T12:10:02;101401.50;;;17.47;70.60
26443;BME280;5563;52.296;6.806;2023-08-07T12:12:32;101397.22;;;17.26;70.67
26443;BME280;5563;52.296;6.806;2023-08-07T12:15:09;101405.88;;;17.03;74.72
26443;BME280;5563;52.296;6.806;2023-08-07T12:17:42;101396.59;;;16.97;76.93
26443;BME280;5563;52.296;6.806;2023-08-07T12:20:16;101403.63;;;17.08;77.43
26443;BME280;5563;52.296;6.806;2023-08-07T12:22:43;101409.53;;;17.11;75.41
26443;BME280;5563;52.296;6.806;2023-08-07T12:25:20;101401.91;;;17.07;72.97
26443;BME280;5563;52.296;6.806;2023-08-07T12:27:48;101408.31;;;17.06;72.84
26443;BME280;5563;52.296;6.806;2023-08-07T12:30:21;101412.53;;;17.08;71.33
26443;BME280;5563;52.296;6.806;2023-08-07T12:33:02;101399.06;;;17.08;69.56
26443;BME280;5563;52.296;6.806;2023-08-07T12:35:39;101399.06;;;17.08;68.74
26443;BME280;5563;52.296;6.806;2023-08-07T12:38:07;101421.97;;;17.22;66.73
26443;BME280;5563;52.296;6.806;2023-08-07T12:40:42;101415.31;;;17.16;63.73
26443;BME280;5563;52.296;6.806;2023-08-07T12:43:10;101414.31;;;17.17;66.28
26443;BME280;5563;52.296;6.806;2023-08-07T12:45:37;101414.84;;;17.39;65.05
26443;BME280;5563;52.296;6.806;2023-08-07T12:48:13;101407.41;;;17.85;63.17
26443;BME280;5563;52.296;6.806;2023-08-07T12:50:40;101407.09;;;18.14;62.85
26443;BME280;5563;52.296;6.806;2023-08-07T12:53:13;101401.03;;;18.20;60.63
26443;BME280;5563;52.296;6.806;2023-08-07T12:55:40;101400.63;;;18.07;59.50
26443;BME280;5563;52.296;6.806;2023-08-07T12:58:13;101392.88;;;18.04;59.89
26443;BME280;5563;52.296;6.806;2023-08-07T13:00:48;101397.69;;;18.44;59.51
26443;BME280;5563;52.296;6.806;2023-08-07T13:03:21;101390.09;;;18.47;58.01
26443;BME280;5563;52.296;6.806;2023-08-07T13:05:48;101390.09;;;18.47;60.86
26443;BME280;5563;52.296;6.806;2023-08-07T13:08:21;101396.75;;;18.35;58.56
26443;BME280;5563;52.296;6.806;2023-08-07T13:10:48;101394.28;;;18.16;58.61
26443;BME280;5563;52.296;6.806;2023-08-07T13:13:21;101395.03;;;18.26;60.32
26443;BME280;5563;52.296;6.806;2023-08-07T13:15:48;101401.75;;;18.48;59.68
26443;BME280;5563;52.296;6.806;2023-08-07T13:18:22;101408.13;;;18.72;58.20